Time;durP1;ratioP1;P1;durP2;ratioP2;P2;SDS_P1;SDS_P2;PMS_P1;PMS_P2;Temp;Humidity;BMP_temperature;BMP_pressure;BME280_temperature;BME280_humidity;BME280_pressure;Samples;Min_cycle;Max_cycle;Signal;HPM_P1;HPM_P2
2022/11/27 00:02:23;;;;;;;3.72;3.63;;;1.10;99.90;;;;;;5017714;28;20434;-75
2022/11/27 00:04:49;;;;;;;3.38;3.28;;;1.10;99.90;;;;;;5020602;28;20057;-75
2022/11/27 00:07:14;;;;;;;3.47;3.38;;;1.00;99.90;;;;;;5018275;28;20079;-75
2022/11/27 00:09:40;;;;;;;3.25;3.15;;;1.00;99.90;;;;;;5020539;28;20034;-75
2022/11/27 00:12:05;;;;;;;3.65;3.55;;;0.70;99.90;;;;;;5025589;28;20072;-76
2022/11/27 00:14:31;;;;;;;4.50;4.30;;;0.60;99.90;;;;;;5024329;28;20076;-77
2022/11/27 00:16:58;;;;;;;4.03;3.92;;;0.60;99.90;;;;;;5018321;28;20029;-75
2022/11/27 00:19:24;;;;;;;4.28;4.10;;;0.60;99.90;;;;;;5019328;28;20026;-76
2022/11/27 00:21:49;;;;;;;4.85;4.47;;;0.60;99.90;;;;;;5023979;28;20025;-76
2022/11/27 00:24:15;;;;;;;4.93;4.75;;;0.60;99.90;;;;;;5010939;28;20026;-76
2022/11/27 00:26:41;;;;;;;3.33;3.22;;;0.60;99.90;;;;;;5017734;28;20017;-76
2022/11/27 00:29:06;;;;;;;3.45;3.35;;;0.60;99.90;;;;;;5019535;28;20498;-76
2022/11/27 00:31:33;;;;;;;4.07;3.97;;;0.60;99.90;;;;;;5017298;28;20025;-76
2022/11/27 00:34:01;;;;;;;3.90;3.80;;;0.60;99.90;;;;;;5019719;28;20040;-76
2022/11/27 00:36:28;;;;;;;4.20;4.10;;;0.60;99.90;;;;;;5025192;28;20420;-77
2022/11/27 00:38:54;;;;;;;3.45;3.35;;;0.70;99.90;;;;;;5022509;28;20163;-77
2022/11/27 00:41:25;;;;;;;3.80;3.70;;;0.70;99.90;;;;;;5017337;28;20120;-76
2022/11/27 00:43:51;;;;;;;3.40;3.30;;;0.60;99.90;;;;;;5018604;28;20033;-76
2022/11/27 00:46:20;;;;;;;3.97;3.88;;;0.60;99.90;;;;;;4998800;28;20041;-76
2022/11/27 00:48:46;;;;;;;4.13;4.03;;;0.50;99.90;;;;;;5024862;28;20442;-73
2022/11/27 00:51:14;;;;;;;3.90;3.80;;;0.50;99.90;;;;;;5018549;28;20025;-77
2022/11/27 00:53:40;;;;;;;4.00;3.90;;;0.50;99.90;;;;;;5018293;28;20446;-77
2022/11/27 00:56:07;;;;;;;3.25;3.15;;;0.30;99.90;;;;;;5024738;28;20025;-76
2022/11/27 00:58:33;;;;;;;3.88;3.78;;;0.30;99.90;;;;;;5024831;28;20021;-77
2022/11/27 01:01:08;;;;;;;3.33;3.22;;;0.40;99.90;;;;;;5017367;28;20028;-76
2022/11/27 01:03:34;;;;;;;3.97;3.88;;;0.40;99.90;;;;;;5017153;28;20065;-76
2022/11/27 01:06:05;;;;;;;3.30;3.20;;;0.50;99.90;;;;;;5022145;28;20026;-75
2022/11/27 01:08:32;;;;;;;6.28;4.65;;;0.40;99.90;;;;;;5024921;28;20112;-77
2022/11/27 01:10:58;;;;;;;3.40;3.30;;;0.30;99.90;;;;;;5020655;28;20564;-76
2022/11/27 01:13:31;;;;;;;5.32;5.05;;;0.30;99.90;;;;;;5018477;28;20026;-76
2022/11/27 01:15:58;;;;;;;3.22;3.13;;;0.40;99.90;;;;;;5021426;28;20399;-75
2022/11/27 01:18:23;;;;;;;3.83;3.72;;;0.30;99.90;;;;;;5023370;28;20030;-75
2022/11/27 01:20:51;;;;;;;4.00;3.90;;;0.40;99.90;;;;;;5020095;28;20471;-76
2022/11/27 01:23:17;;;;;;;3.55;3.45;;;0.50;99.90;;;;;;5017988;28;20033;-77
2022/11/27 01:25:43;;;;;;;3.50;3.40;;;0.40;99.90;;;;;;5031409;28;20026;-77
2022/11/27 01:28:08;;;;;;;4.07;3.97;;;0.30;99.90;;;;;;5027276;28;20030;-76
2022/11/27 01:30:36;;;;;;;3.63;3.53;;;0.40;99.90;;;;;;5024545;28;20025;-76
2022/11/27 01:33:02;;;;;;;3.95;3.85;;;0.50;99.90;;;;;;5016203;28;20065;-76
2022/11/27 01:35:27;;;;;;;4.43;4.28;;;0.50;99.90;;;;;;5025954;28;20067;-77
2022/11/27 01:37:53;;;;;;;4.00;3.90;;;0.40;99.90;;;;;;5030759;28;20041;-75
2022/11/27 01:40:19;;;;;;;3.88;3.78;;;0.30;99.90;;;;;;5025532;28;20045;-76
2022/11/27 01:42:44;;;;;;;6.28;6.07;;;0.30;99.90;;;;;;5021339;28;20021;-76
2022/11/27 01:45:13;;;;;;;3.58;3.47;;;0.40;99.90;;;;;;5024319;28;20022;-76
2022/11/27 01:47:57;;;;;;;3.60;3.50;;;0.50;99.90;;;;;;5027840;28;20018;-76
2022/11/27 01:50:33;;;;;;;3.65;3.55;;;0.40;99.90;;;;;;5027935;28;20026;-76
2022/11/27 01:53:08;;;;;;;3.55;3.45;;;0.40;99.90;;;;;;5011205;28;20029;-76
2022/11/27 01:55:39;;;;;;;3.72;3.63;;;0.10;99.90;;;;;;5019819;28;20021;-77
2022/11/27 01:58:27;;;;;;;3.72;3.63;;;0.10;99.90;;;;;;5024242;28;20114;-76
2022/11/27 02:00:52;;;;;;;3.40;3.30;;;-0.20;99.90;;;;;;5027793;28;20503;-77
2022/11/27 02:03:19;;;;;;;3.13;3.03;;;-0.40;99.90;;;;;;5026587;28;20063;-78
2022/11/27 02:05:44;;;;;;;6.00;5.70;;;-0.40;99.90;;;;;;5020987;28;20075;-77
2022/11/27 02:08:13;;;;;;;3.80;3.70;;;-0.50;99.90;;;;;;5019888;28;20121;-77
2022/11/27 02:10:46;;;;;;;3.63;3.53;;;-0.50;99.90;;;;;;5000432;28;20034;-78
2022/11/27 02:13:17;;;;;;;3.88;3.78;;;-0.40;99.90;;;;;;5027816;28;20022;-78
2022/11/27 02:16:19;;;;;;;3.45;3.35;;;-0.30;99.90;;;;;;5022627;28;20026;-77
2022/11/27 02:19:13;;;;;;;3.08;2.97;;;-0.30;99.90;;;;;;5025994;28;20026;-78
2022/11/27 02:21:48;;;;;;;3.05;2.95;;;-0.30;99.90;;;;;;5027674;28;20076;-77
2022/11/27 02:24:27;;;;;;;4.25;4.15;;;-0.30;99.90;;;;;;5025745;28;20021;-77
2022/11/27 02:27:11;;;;;;;3.50;3.40;;;-0.30;99.90;;;;;;5026887;28;20060;-78
2022/11/27 02:29:38;;;;;;;3.25;3.15;;;-0.30;99.90;;;;;;5027278;28;20022;-77
2022/11/27 02:32:23;;;;;;;3.30;3.20;;;-0.40;99.90;;;;;;5023879;28;20380;-77
2022/11/27 02:34:58;;;;;;;3.35;3.25;;;-0.40;99.90;;;;;;5020673;28;20053;-77
2022/11/27 02:37:31;;;;;;;3.33;3.22;;;-0.40;99.90;;;;;;5020109;28;20026;-77
2022/11/27 02:40:11;;;;;;;3.25;3.15;;;-0.30;99.90;;;;;;5020118;28;20147;-77
2022/11/27 02:42:52;;;;;;;3.22;3.13;;;-0.40;99.90;;;;;;5016220;28;20068;-77
2022/11/27 02:45:22;;;;;;;3.20;3.10;;;-0.20;99.90;;;;;;5025650;28;20026;-76
2022/11/27 02:47:49;;;;;;;3.47;3.38;;;-0.40;99.90;;;;;;5020162;28;20037;-77
2022/11/27 02:50:24;;;;;;;3.35;3.25;;;-0.30;99.90;;;;;;5020654;28;20056;-76
2022/11/27 02:52:54;;;;;;;3.15;3.05;;;-0.30;99.90;;;;;;5023737;28;20029;-76
2022/11/27 02:55:23;;;;;;;3.72;3.63;;;-0.40;99.90;;;;;;5020092;28;20439;-77
2022/11/27 02:57:55;;;;;;;4.05;3.95;;;-0.40;99.90;;;;;;5024598;28;20034;-76
2022/11/27 03:00:20;;;;;;;3.95;3.85;;;-0.40;99.90;;;;;;5026784;28;20105;-76
2022/11/27 03:02:55;;;;;;;3.45;3.35;;;-0.50;99.90;;;;;;5022157;28;20485;-77
2022/11/27 03:05:23;;;;;;;6.28;6.07;;;-0.60;99.90;;;;;;5030225;28;20558;-76
2022/11/27 03:07:51;;;;;;;5.00;4.80;;;-0.50;99.90;;;;;;5021946;28;20486;-76
2022/11/27 03:10:26;;;;;;;3.40;3.30;;;-0.50;99.90;;;;;;5019572;28;20034;-76
2022/11/27 03:12:51;;;;;;;3.40;3.30;;;-0.60;99.90;;;;;;5033068;28;20037;-76
2022/11/27 03:15:18;;;;;;;3.20;3.10;;;-0.60;99.90;;;;;;5028363;28;20275;-76
2022/11/27 03:18:00;;;;;;;3.42;3.33;;;-0.70;99.90;;;;;;5024369;28;20032;-74
2022/11/27 03:20:35;;;;;;;3.53;3.42;;;-0.60;99.90;;;;;;5000338;28;20030;-74
2022/11/27 03:23:01;;;;;;;5.18;4.88;;;-0.80;99.90;;;;;;5011681;28;20030;-74
2022/11/27 03:25:27;;;;;;;3.58;3.47;;;-0.80;99.90;;;;;;5012978;28;20057;-74
2022/11/27 03:27:57;;;;;;;3.20;3.10;;;-0.80;99.90;;;;;;5026395;28;20555;-74
2022/11/27 03:30:23;;;;;;;3.38;3.28;;;-0.60;99.90;;;;;;5032667;28;20026;-74
2022/11/27 03:32:49;;;;;;;3.13;3.03;;;-0.70;99.90;;;;;;5032638;28;20060;-74
2022/11/27 03:35:18;;;;;;;3.47;3.38;;;-0.70;99.90;;;;;;5031366;28;20036;-74
2022/11/27 03:37:44;;;;;;;3.67;3.58;;;-0.70;99.90;;;;;;5032119;28;20131;-74
2022/11/27 03:40:11;;;;;;;3.15;3.05;;;-0.60;99.90;;;;;;5032692;28;20075;-74
2022/11/27 03:42:46;;;;;;;3.53;3.42;;;-0.50;99.90;;;;;;5019196;28;20022;-74
2022/11/27 03:45:37;;;;;;;3.17;3.08;;;-0.50;99.90;;;;;;5021506;28;20035;-74
2022/11/27 03:48:12;;;;;;;3.25;3.15;;;-0.70;99.90;;;;;;5008524;28;20025;-74
2022/11/27 03:51:09;;;;;;;3.75;3.65;;;-0.80;99.90;;;;;;5018971;28;20036;-75
2022/11/27 03:53:50;;;;;;;;;;;-0.70;99.90;;;;;;5032209;28;20029;-75
2022/11/27 03:56:28;;;;;;;3.88;3.78;;;-0.80;99.90;;;;;;5012694;28;19906;-74
2022/11/27 03:58:58;;;;;;;3.20;3.10;;;-0.70;99.90;;;;;;5015775;28;20450;-75
2022/11/27 04:01:25;;;;;;;3.75;3.65;;;-0.60;99.90;;;;;;5020051;28;20018;-76
2022/11/27 04:03:50;;;;;;;3.38;3.28;;;-0.50;99.90;;;;;;5024255;28;20593;-75
2022/11/27 04:06:16;;;;;;;3.88;3.78;;;-0.60;99.90;;;;;;5023540;28;20022;-75
2022/11/27 04:08:42;;;;;;;3.35;3.25;;;-0.80;99.90;;;;;;5032019;28;20078;-75
2022/11/27 04:11:07;;;;;;;3.85;3.75;;;-0.60;99.90;;;;;;5021187;28;20040;-76
2022/11/27 04:13:33;;;;;;;3.60;3.50;;;-0.40;99.90;;;;;;5025349;28;20029;-76
2022/11/27 04:16:03;;;;;;;4.47;4.38;;;-0.60;99.90;;;;;;5022967;28;20033;-76
2022/11/27 04:18:28;;;;;;;16.23;14.82;;;-0.70;99.90;;;;;;5018522;28;20029;-75
2022/11/27 04:20:54;;;;;;;3.42;3.33;;;-0.70;99.90;;;;;;5020508;28;20041;-75
2022/11/27 04:23:19;;;;;;;3.83;3.72;;;-0.70;99.90;;;;;;5025217;28;20587;-75
2022/11/27 04:25:46;;;;;;;3.85;3.75;;;-0.80;99.90;;;;;;5023213;28;20026;-75
2022/11/27 04:28:12;;;;;;;3.65;3.55;;;-0.80;99.90;;;;;;5018218;28;20049;-75
2022/11/27 04:30:37;;;;;;;3.30;3.20;;;-0.90;99.90;;;;;;5020696;28;20076;-75
2022/11/27 04:33:03;;;;;;;3.67;3.58;;;-1.10;99.90;;;;;;5025321;28;20072;-76
2022/11/27 04:35:28;;;;;;;3.38;3.28;;;-1.00;99.90;;;;;;5022948;28;20026;-75
2022/11/27 04:37:56;;;;;;;3.92;3.83;;;-1.20;99.90;;;;;;5018137;28;20049;-75
2022/11/27 04:40:22;;;;;;;5.57;5.30;;;-1.10;99.90;;;;;;5019127;28;20034;-74
2022/11/27 04:42:47;;;;;;;3.55;3.45;;;-1.10;99.90;;;;;;5025045;28;20104;-75
2022/11/27 04:45:13;;;;;;;3.72;3.63;;;-1.20;99.90;;;;;;5023054;28;20025;-75
2022/11/27 04:47:39;;;;;;;3.33;3.22;;;-1.10;99.90;;;;;;5018182;28;20029;-75
2022/11/27 04:50:05;;;;;;;3.90;3.80;;;-1.10;99.90;;;;;;5020777;28;20096;-76
2022/11/27 04:52:30;;;;;;;3.97;3.88;;;-1.20;99.90;;;;;;5028026;28;20033;-76
2022/11/27 04:54:56;;;;;;;3.53;3.42;;;-1.10;99.90;;;;;;5031481;28;20586;-76
2022/11/27 04:57:21;;;;;;;3.85;3.75;;;-1.10;99.90;;;;;;5018102;28;20087;-75
2022/11/27 04:59:47;;;;;;;4.05;3.95;;;-1.10;99.90;;;;;;5019268;28;20068;-75
2022/11/27 05:02:13;;;;;;;3.55;3.45;;;-1.10;99.90;;;;;;5011772;28;20100;-75
2022/11/27 05:04:38;;;;;;;3.47;3.38;;;-1.20;99.90;;;;;;5022890;28;20013;-76
2022/11/27 05:07:04;;;;;;;3.78;3.67;;;-1.30;99.90;;;;;;5016469;28;20533;-76
2022/11/27 05:09:29;;;;;;;3.65;3.55;;;-1.30;99.90;;;;;;5026571;28;20033;-76
2022/11/27 05:11:55;;;;;;;3.30;3.20;;;-1.30;99.90;;;;;;5030918;28;20484;-75
2022/11/27 05:14:22;;;;;;;3.65;3.55;;;-1.40;99.90;;;;;;5026604;28;20097;-76
2022/11/27 05:16:53;;;;;;;6.20;5.85;;;-1.40;99.90;;;;;;5020735;28;20029;-75
2022/11/27 05:19:21;;;;;;;4.05;3.95;;;-1.30;99.90;;;;;;5023291;28;20028;-75
2022/11/27 05:21:48;;;;;;;3.33;3.22;;;-1.30;99.90;;;;;;5027395;28;20029;-75
2022/11/27 05:24:15;;;;;;;3.75;3.65;;;-1.40;99.90;;;;;;5027742;28;20026;-76
2022/11/27 05:26:41;;;;;;;3.25;3.15;;;-1.30;99.90;;;;;;5021198;28;20024;-76
2022/11/27 05:29:08;;;;;;;3.58;3.47;;;-1.60;99.90;;;;;;5022863;28;20026;-75
2022/11/27 05:31:35;;;;;;;2.95;2.85;;;-1.80;99.90;;;;;;5013882;28;20030;-76
2022/11/27 05:34:01;;;;;;;3.85;3.75;;;-1.90;99.90;;;;;;5015167;28;20391;-76
2022/11/27 05:36:27;;;;;;;3.90;3.80;;;-1.70;99.90;;;;;;5034181;28;20112;-75
2022/11/27 05:38:52;;;;;;;3.70;3.60;;;-1.60;99.90;;;;;;5022118;28;20105;-75
2022/11/27 05:41:18;;;;;;;3.65;3.55;;;-1.60;99.90;;;;;;5027299;28;20022;-75
2022/11/27 05:43:44;;;;;;;3.72;3.63;;;-1.60;99.90;;;;;;5027136;28;20387;-75
2022/11/27 05:46:13;;;;;;;3.45;3.35;;;-1.60;99.90;;;;;;5034599;28;20117;-77
2022/11/27 05:48:38;;;;;;;4.75;4.55;;;-1.50;99.90;;;;;;5026427;28;20029;-77
2022/11/27 05:51:04;;;;;;;3.63;3.53;;;-1.50;99.90;;;;;;5020462;28;20156;-77
2022/11/27 05:53:30;;;;;;;4.28;4.18;;;-1.50;99.90;;;;;;5018376;28;20399;-76
2022/11/27 05:56:08;;;;;;;3.95;3.85;;;-1.60;99.90;;;;;;5024583;28;20029;-77
2022/11/27 05:58:34;;;;;;;3.78;3.67;;;-1.50;99.90;;;;;;5038044;28;20697;-77
2022/11/27 06:01:00;;;;;;;3.60;3.50;;;-1.50;99.90;;;;;;5024727;28;20025;-76
2022/11/27 06:03:26;;;;;;;3.15;3.05;;;-1.40;99.90;;;;;;5019724;28;20022;-76
2022/11/27 06:05:52;;;;;;;4.68;4.47;;;-1.50;99.90;;;;;;5029186;28;20025;-76
2022/11/27 06:08:18;;;;;;;6.45;6.05;;;-1.40;99.90;;;;;;5027822;28;20037;-77
2022/11/27 06:10:44;;;;;;;10.43;5.90;;;-1.60;99.90;;;;;;5021721;28;20049;-76
2022/11/27 06:13:10;;;;;;;3.10;3.00;;;-1.60;99.90;;;;;;5020125;28;20034;-76
2022/11/27 06:15:37;;;;;;;6.85;6.30;;;-1.60;99.90;;;;;;5027761;28;20084;-76
2022/11/27 06:18:02;;;;;;;3.38;3.28;;;-1.70;99.90;;;;;;5027554;28;20025;-76
2022/11/27 06:20:28;;;;;;;3.15;3.05;;;-1.80;99.90;;;;;;5015510;28;20037;-76
2022/11/27 06:22:55;;;;;;;11.52;10.80;;;-1.80;99.90;;;;;;5025811;28;20129;-76
2022/11/27 06:25:20;;;;;;;3.15;3.05;;;-1.90;99.90;;;;;;5015084;28;20025;-76
2022/11/27 06:27:46;;;;;;;4.32;4.20;;;-1.90;99.90;;;;;;5027263;28;20504;-76
2022/11/27 06:30:12;;;;;;;3.75;3.65;;;-1.80;99.90;;;;;;5021928;28;20021;-76
2022/11/27 06:32:37;;;;;;;14.52;11.88;;;-1.70;99.90;;;;;;5021001;28;20030;-76
2022/11/27 06:35:03;;;;;;;3.85;3.75;;;-1.60;99.90;;;;;;5026464;28;20030;-76
2022/11/27 06:37:29;;;;;;;3.28;3.17;;;-1.70;99.90;;;;;;5027145;28;20057;-76
2022/11/27 06:39:55;;;;;;;3.33;3.22;;;-1.70;99.90;;;;;;5012913;28;20037;-77
2022/11/27 06:42:21;;;;;;;3.55;3.45;;;-1.70;99.90;;;;;;5015278;28;20384;-76
2022/11/27 06:44:46;;;;;;;4.13;4.03;;;-1.70;99.90;;;;;;5025123;28;20017;-76
2022/11/27 06:47:12;;;;;;;3.05;2.95;;;-1.80;99.90;;;;;;5025929;28;20029;-76
2022/11/27 06:49:37;;;;;;;3.15;3.05;;;-2.20;99.90;;;;;;5021429;28;20029;-76
2022/11/27 06:52:03;;;;;;;2.78;2.67;;;-2.40;99.90;;;;;;5019819;28;20025;-76
2022/11/27 06:54:29;;;;;;;2.75;2.65;;;-2.40;99.90;;;;;;5033091;28;20029;-76
2022/11/27 06:56:54;;;;;;;2.45;2.35;;;-2.30;99.90;;;;;;5019226;28;20076;-76
2022/11/27 06:59:20;;;;;;;3.42;3.33;;;-2.40;99.90;;;;;;5027782;28;20034;-76
2022/11/27 07:01:46;;;;;;;2.55;2.45;;;-2.30;99.90;;;;;;5026479;28;20022;-76
2022/11/27 07:04:14;;;;;;;3.25;3.15;;;-2.30;99.90;;;;;;5016111;28;20029;-77
2022/11/27 07:06:40;;;;;;;2.95;2.85;;;-2.20;99.90;;;;;;5028157;28;20052;-76
2022/11/27 07:09:06;;;;;;;3.53;3.42;;;-2.10;99.90;;;;;;5015859;28;20060;-77
2022/11/27 07:11:32;;;;;;;2.60;2.50;;;-2.20;99.90;;;;;;5016066;28;20160;-77
2022/11/27 07:14:00;;;;;;;3.60;3.50;;;-2.20;99.90;;;;;;5012054;28;20179;-77
2022/11/27 07:16:28;;;;;;;3.05;2.95;;;-2.00;99.90;;;;;;5014337;28;20036;-76
2022/11/27 07:18:57;;;;;;;3.60;3.45;;;-2.00;99.90;;;;;;5023771;28;20029;-76
2022/11/27 07:21:23;;;;;;;3.78;3.67;;;-1.90;99.90;;;;;;5025081;28;20029;-76
2022/11/27 07:23:48;;;;;;;3.85;3.75;;;-1.90;99.90;;;;;;5021036;28;20021;-77
2022/11/27 07:26:20;;;;;;;2.75;2.65;;;-2.10;99.90;;;;;;5030939;28;20424;-77
2022/11/27 07:28:46;;;;;;;3.45;3.35;;;-2.00;99.90;;;;;;5021456;28;20077;-77
2022/11/27 07:31:17;;;;;;;3.03;2.92;;;-2.00;99.90;;;;;;5019583;28;20035;-76
2022/11/27 07:33:43;;;;;;;2.80;2.70;;;-2.10;99.90;;;;;;5021335;28;20030;-77
2022/11/27 07:36:17;;;;;;;3.20;3.10;;;-2.20;99.90;;;;;;5026330;28;20041;-77
2022/11/27 07:38:46;;;;;;;3.13;3.03;;;-2.10;99.90;;;;;;5031866;28;20022;-77
2022/11/27 07:41:12;;;;;;;3.15;3.05;;;-2.30;99.90;;;;;;5019106;28;20115;-77
2022/11/27 07:43:38;;;;;;;5.25;4.85;;;-2.10;99.90;;;;;;5020903;28;20057;-77
2022/11/27 07:46:05;;;;;;;3.20;3.10;;;-1.90;99.90;;;;;;5025924;28;20391;-76
2022/11/27 07:48:31;;;;;;;2.80;2.70;;;-1.90;99.90;;;;;;5023694;28;20519;-78
2022/11/27 07:50:57;;;;;;;3.47;3.38;;;-1.90;99.90;;;;;;5015483;28;20057;-77
2022/11/27 07:53:22;;;;;;;5.95;5.15;;;-2.00;99.90;;;;;;5012586;28;20034;-77
2022/11/27 07:55:48;;;;;;;4.15;4.05;;;-1.80;99.90;;;;;;5025602;28;20029;-77
2022/11/27 07:58:13;;;;;;;3.53;3.33;;;-2.00;99.90;;;;;;5023058;28;20087;-77
2022/11/27 08:00:39;;;;;;;3.63;3.53;;;-2.00;99.90;;;;;;5014168;28;20022;-77
2022/11/27 08:03:05;;;;;;;2.80;2.70;;;-1.90;99.90;;;;;;5023771;28;20108;-76
2022/11/27 08:05:33;;;;;;;4.43;4.22;;;-1.70;99.90;;;;;;5017464;28;20108;-77
2022/11/27 08:08:00;;;;;;;3.55;3.45;;;-1.50;99.90;;;;;;5019493;28;20048;-76
2022/11/27 08:10:26;;;;;;;3.40;3.30;;;-1.40;99.90;;;;;;5025472;28;20026;-77
2022/11/27 08:12:51;;;;;;;3.50;3.40;;;-1.30;99.90;;;;;;5024391;28;20025;-76
2022/11/27 08:15:17;;;;;;;3.00;2.90;;;-1.10;99.90;;;;;;5017220;28;20029;-76
2022/11/27 08:17:42;;;;;;;6.38;4.90;;;-1.10;99.90;;;;;;5019701;28;20096;-77
2022/11/27 08:20:08;;;;;;;2.75;2.65;;;-1.20;99.90;;;;;;5019362;28;20053;-76
2022/11/27 08:22:34;;;;;;;3.20;3.05;;;-1.40;99.90;;;;;;5020029;28;20100;-77
2022/11/27 08:25:00;;;;;;;3.15;3.05;;;-1.40;99.90;;;;;;5025950;28;20026;-77
2022/11/27 08:27:26;;;;;;;2.90;2.80;;;-1.40;99.90;;;;;;5022514;28;20378;-76
2022/11/27 08:29:51;;;;;;;3.03;2.92;;;-1.30;99.90;;;;;;5026143;28;20026;-77
2022/11/27 08:32:17;;;;;;;3.28;3.17;;;-1.20;99.90;;;;;;5012773;28;20029;-77
2022/11/27 08:34:42;;;;;;;3.33;3.22;;;-1.10;99.90;;;;;;5025558;28;20030;-76
2022/11/27 08:37:08;;;;;;;4.88;4.68;;;-1.10;99.90;;;;;;5023054;28;20037;-76
2022/11/27 08:39:34;;;;;;;3.47;3.38;;;-1.20;99.90;;;;;;5027067;28;20030;-76
2022/11/27 08:42:00;;;;;;;2.92;2.83;;;-1.00;99.90;;;;;;5022225;28;20112;-77
2022/11/27 08:44:25;;;;;;;3.38;3.28;;;-0.90;99.90;;;;;;5026702;28;20113;-77
2022/11/27 08:46:51;;;;;;;3.70;3.60;;;-0.70;99.90;;;;;;5020729;28;20022;-76
2022/11/27 08:49:16;;;;;;;3.90;3.80;;;-0.60;99.90;;;;;;5017498;28;20068;-77
2022/11/27 08:51:42;;;;;;;3.60;3.50;;;-0.70;99.90;;;;;;5021198;28;20081;-78
2022/11/27 08:54:07;;;;;;;3.80;3.70;;;-0.60;99.90;;;;;;5025752;28;20030;-76
2022/11/27 08:56:33;;;;;;;3.42;3.33;;;-0.40;99.90;;;;;;5021878;28;20394;-77
2022/11/27 08:58:59;;;;;;;3.53;3.42;;;-0.20;99.90;;;;;;5018864;28;20391;-76
2022/11/27 09:01:27;;;;;;;3.75;3.53;;;0.00;99.90;;;;;;5022251;28;20472;-77
2022/11/27 09:03:53;;;;;;;3.60;3.50;;;-0.10;99.90;;;;;;5025965;28;20394;-77
2022/11/27 09:06:30;;;;;;;3.42;3.33;;;-0.20;99.90;;;;;;5022512;28;20021;-77
2022/11/27 09:09:00;;;;;;;3.83;3.72;;;-0.20;99.90;;;;;;5016843;28;20079;-76
2022/11/27 09:11:27;;;;;;;5.30;5.07;;;-0.10;99.90;;;;;;5031877;28;20021;-76
2022/11/27 09:13:53;;;;;;;12.32;11.30;;;0.00;99.90;;;;;;5010423;28;20068;-79
2022/11/27 09:16:20;;;;;;;4.22;4.10;;;0.10;99.90;;;;;;5011894;28;20119;-77
2022/11/27 09:18:49;;;;;;;3.28;3.17;;;0.10;99.90;;;;;;5018112;28;20072;-77
2022/11/27 09:21:17;;;;;;;3.88;3.70;;;0.00;99.90;;;;;;5031364;28;20087;-77
2022/11/27 09:23:43;;;;;;;4.32;4.13;;;0.00;99.90;;;;;;5014585;28;20025;-76
2022/11/27 09:26:12;;;;;;;3.75;3.65;;;0.10;99.90;;;;;;5015755;28;20097;-76
2022/11/27 09:28:42;;;;;;;6.22;4.88;;;0.00;99.90;;;;;;5016623;28;20033;-76
2022/11/27 09:31:11;;;;;;;4.15;4.05;;;0.10;99.90;;;;;;5018354;28;20967;-76
2022/11/27 09:33:39;;;;;;;4.63;4.53;;;0.20;99.90;;;;;;5037126;28;20026;-76
2022/11/27 09:36:07;;;;;;;5.32;5.13;;;0.30;99.90;;;;;;5019070;28;20105;-75
2022/11/27 09:38:33;;;;;;;4.22;4.10;;;0.30;99.90;;;;;;5015649;28;20030;-76
2022/11/27 09:41:14;;;;;;;3.80;3.70;;;0.30;99.90;;;;;;5017757;28;20555;-76
2022/11/27 09:43:55;;;;;;;3.60;3.50;;;0.60;99.90;;;;;;5019882;28;20084;-76
2022/11/27 09:46:41;;;;;;;4.43;4.32;;;0.80;99.90;;;;;;5006398;28;20053;-76
2022/11/27 09:49:12;;;;;;;5.03;4.82;;;0.80;99.90;;;;;;5018130;28;20033;-76
2022/11/27 09:52:01;;;;;;;7.78;7.15;;;0.80;99.90;;;;;;5035659;28;20076;-77
2022/11/27 09:54:39;;;;;;;3.90;3.80;;;0.90;99.90;;;;;;5028797;28;20032;-76
2022/11/27 09:57:07;;;;;;;5.47;5.28;;;1.10;99.90;;;;;;5027337;28;20033;-76
2022/11/27 09:59:48;;;;;;;5.05;4.85;;;1.20;99.90;;;;;;5023016;28;20052;-76
2022/11/27 10:02:31;;;;;;;4.63;4.53;;;1.30;99.90;;;;;;5021262;28;20022;-77
2022/11/27 10:04:58;;;;;;;5.75;5.55;;;1.30;99.90;;;;;;5034597;28;20017;-76
2022/11/27 10:07:43;;;;;;;6.68;6.43;;;1.40;99.90;;;;;;5021630;28;20030;-77
2022/11/27 10:10:30;;;;;;;6.47;6.25;;;1.40;99.90;;;;;;5022518;28;20040;-77
2022/11/27 10:13:13;;;;;;;5.53;5.32;;;1.40;99.90;;;;;;5023639;28;20101;-76
2022/11/27 10:15:58;;;;;;;4.35;4.25;;;1.70;99.90;;;;;;5009763;28;20021;-77
2022/11/27 10:18:31;;;;;;;5.18;4.97;;;1.80;99.90;;;;;;5020994;28;20506;-76
2022/11/27 10:21:22;;;;;;;10.18;9.48;;;1.60;99.90;;;;;;5023477;28;20100;-76
2022/11/27 10:24:05;;;;;;;9.23;8.75;;;1.80;99.90;;;;;;5002056;28;20534;-76
2022/11/27 10:26:40;;;;;;;4.95;4.75;;;1.70;99.90;;;;;;5015029;28;20022;-76
2022/11/27 10:29:20;;;;;;;5.18;4.97;;;1.80;99.90;;;;;;5028001;28;20017;-77
2022/11/27 10:31:57;;;;;;;5.50;5.30;;;2.00;99.90;;;;;;5019779;28;20398;-76
2022/11/27 10:34:33;;;;;;;6.65;6.35;;;2.10;99.90;;;;;;5033263;28;20155;-77
2022/11/27 10:37:05;;;;;;;6.72;6.45;;;2.00;99.90;;;;;;5028233;28;20038;-78
2022/11/27 10:39:45;;;;;;;5.57;5.38;;;1.90;99.90;;;;;;5024664;28;20029;-77
2022/11/27 10:42:49;;;;;;;5.13;4.93;;;1.90;99.90;;;;;;5025489;28;20024;-77
2022/11/27 10:45:20;;;;;;;6.45;6.25;;;2.10;99.90;;;;;;4937723;29;20031;-77
2022/11/27 10:47:47;;;;;;;5.15;4.95;;;2.40;99.90;;;;;;4951692;29;20030;-77
2022/11/27 10:50:14;;;;;;;8.40;7.15;;;2.40;99.90;;;;;;4979725;28;20044;-77
2022/11/27 10:53:08;;;;;;;7.38;7.03;;;2.30;99.90;;;;;;5018811;28;20026;-76
2022/11/27 10:55:42;;;;;;;6.05;5.85;;;2.50;99.90;;;;;;5011146;28;20038;-77
2022/11/27 10:58:17;;;;;;;5.90;5.70;;;2.60;99.90;;;;;;5028917;28;20033;-77
2022/11/27 11:00:42;;;;;;;6.60;6.40;;;2.80;99.90;;;;;;5033175;28;20018;-77
2022/11/27 11:03:17;;;;;;;5.90;5.70;;;2.80;99.90;;;;;;5031048;28;20036;-77
2022/11/27 11:05:55;;;;;;;6.30;6.10;;;2.90;99.90;;;;;;5025516;28;20025;-76
2022/11/27 11:08:23;;;;;;;7.00;6.80;;;3.00;99.90;;;;;;5019883;28;20030;-76
2022/11/27 11:10:56;;;;;;;6.85;6.65;;;3.20;99.90;;;;;;5024977;28;20029;-76
2022/11/27 11:13:21;;;;;;;6.28;6.07;;;3.30;99.90;;;;;;5026772;28;20033;-77
2022/11/27 11:16:10;;;;;;;6.13;5.93;;;3.20;99.90;;;;;;5021928;28;20388;-77
2022/11/27 11:18:47;;;;;;;6.38;6.18;;;3.30;99.90;;;;;;5018341;28;20502;-76
2022/11/27 11:21:18;;;;;;;6.50;6.30;;;3.30;99.90;;;;;;5018448;28;20407;-76
2022/11/27 11:24:15;;;;;;;6.63;6.43;;;3.30;99.90;;;;;;5024111;28;20048;-77
2022/11/27 11:26:51;;;;;;;6.47;6.28;;;3.30;99.90;;;;;;5015225;28;20087;-77
2022/11/27 11:29:36;;;;;;;7.22;7.03;;;3.50;99.90;;;;;;5018159;28;20073;-77
2022/11/27 11:32:18;;;;;;;7.43;7.13;;;3.40;99.90;;;;;;5022118;28;20065;-77
2022/11/27 11:34:52;;;;;;;6.65;6.45;;;3.50;99.90;;;;;;5028039;28;20026;-77
2022/11/27 11:37:31;;;;;;;7.95;7.53;;;3.50;99.90;;;;;;5023798;28;20108;-77
2022/11/27 11:40:04;;;;;;;7.65;7.35;;;3.40;99.90;;;;;;5006709;28;20113;-77
2022/11/27 11:42:33;;;;;;;6.90;6.70;;;3.40;99.90;;;;;;5018832;28;20030;-77
2022/11/27 11:45:10;;;;;;;6.30;6.10;;;3.30;99.90;;;;;;5022080;28;20041;-78
2022/11/27 11:47:44;;;;;;;7.20;7.00;;;3.30;99.90;;;;;;5024577;28;20105;-78
2022/11/27 11:50:13;;;;;;;10.05;9.50;;;3.30;99.90;;;;;;5024224;28;20539;-77
2022/11/27 11:52:47;;;;;;;7.22;7.03;;;3.20;99.90;;;;;;5019186;28;20021;-77
2022/11/27 11:55:16;;;;;;;8.98;8.50;;;3.30;99.90;;;;;;5019639;28;20467;-77
2022/11/27 11:57:56;;;;;;;8.05;7.75;;;3.10;99.90;;;;;;5025473;28;20054;-77
2022/11/27 12:00:26;;;;;;;8.15;7.85;;;3.00;99.90;;;;;;5025647;28;20045;-78
2022/11/27 12:02:57;;;;;;;8.40;8.10;;;3.00;99.90;;;;;;5012506;28;20028;-77
2022/11/27 12:05:25;;;;;;;8.45;8.15;;;3.10;99.90;;;;;;5025738;28;20025;-77
2022/11/27 12:08:03;;;;;;;8.60;8.30;;;3.30;99.90;;;;;;5021205;28;20030;-77
2022/11/27 12:10:47;;;;;;;8.50;8.20;;;3.00;99.90;;;;;;5012263;28;20037;-77
2022/11/27 12:13:34;;;;;;;10.50;9.63;;;3.10;99.90;;;;;;5013376;28;20053;-77
2022/11/27 12:16:08;;;;;;;8.52;8.23;;;3.20;99.90;;;;;;5021362;28;20054;-77
2022/11/27 12:18:58;;;;;;;8.70;8.40;;;3.40;99.90;;;;;;5025156;28;20029;-77
2022/11/27 12:21:36;;;;;;;8.43;8.13;;;3.40;99.90;;;;;;5027295;28;20387;-77
2022/11/27 12:24:25;;;;;;;9.60;9.30;;;3.50;99.90;;;;;;5022091;28;20018;-77
2022/11/27 12:27:20;;;;;;;8.30;8.00;;;3.50;99.90;;;;;;5005504;28;20021;-77
2022/11/27 12:29:56;;;;;;;8.15;7.85;;;3.60;99.90;;;;;;5018471;28;20365;-77
2022/11/27 12:32:24;;;;;;;;;;;3.60;99.90;;;;;;5019578;28;20421;-75
2022/11/27 12:35:27;;;;;;;7.75;7.45;;;3.60;99.90;;;;;;5026762;28;19952;-75
2022/11/27 12:38:11;;;;;;;8.07;7.78;;;3.60;99.90;;;;;;5023577;28;20026;-77
2022/11/27 12:40:48;;;;;;;8.68;8.38;;;3.60;99.90;;;;;;5025068;28;20127;-77
2022/11/27 12:43:25;;;;;;;7.70;7.40;;;3.40;99.90;;;;;;5019065;28;20033;-77
2022/11/27 12:46:18;;;;;;;7.40;7.18;;;3.30;99.90;;;;;;5017439;28;20021;-77
2022/11/27 12:49:03;;;;;;;8.63;8.32;;;3.20;99.90;;;;;;5018327;28;20060;-77
2022/11/27 12:51:53;;;;;;;9.02;8.73;;;3.40;99.90;;;;;;5009229;28;20491;-77
2022/11/27 12:54:39;;;;;;;8.38;8.07;;;3.50;99.90;;;;;;5016701;28;20091;-77
2022/11/27 12:57:12;;;;;;;7.93;7.63;;;3.50;99.90;;;;;;5005332;28;20750;-77
2022/11/27 12:59:47;;;;;;;7.88;7.57;;;3.50;99.90;;;;;;5020218;28;20026;-77
2022/11/27 13:02:24;;;;;;;9.60;9.10;;;3.50;99.90;;;;;;5023793;28;20072;-77
2022/11/27 13:05:04;;;;;;;8.00;7.70;;;3.40;99.90;;;;;;5021422;28;20275;-77
2022/11/27 13:07:54;;;;;;;8.30;8.00;;;3.40;99.90;;;;;;5007704;28;20034;-77
2022/11/27 13:10:28;;;;;;;8.02;7.72;;;3.60;99.90;;;;;;5017216;28;20088;-77